createdAt,value
2023-04-21T00:01:33.132Z,49.67
2023-04-21T00:04:05.776Z,50.24
2023-04-21T00:06:38.022Z,49.63
2023-04-21T00:09:11.567Z,50.11
2023-04-21T00:11:44.060Z,50.47
2023-04-21T00:14:16.329Z,49.85
2023-04-21T00:16:53.623Z,49.91
2023-04-21T00:19:25.986Z,50.52
2023-04-21T00:22:01.515Z,50.21
2023-04-21T00:24:34.216Z,50.39
2023-04-21T00:27:06.638Z,49.95
2023-04-21T00:29:39.024Z,50.33
2023-04-21T00:32:11.529Z,50.80
2023-04-21T00:34:44.327Z,50.59
2023-04-21T00:37:17.848Z,50.71
2023-04-21T00:39:50.455Z,50.79
2023-04-21T00:42:23.115Z,50.71
2023-04-21T00:44:55.671Z,51.12
2023-04-21T00:47:29.278Z,51.12
2023-04-21T00:50:04.301Z,50.93
2023-04-21T00:52:37.284Z,50.93
2023-04-21T00:55:11.503Z,51.17
2023-04-21T00:57:42.569Z,50.87
2023-04-21T01:00:16.972Z,51.06
2023-04-21T01:02:49.679Z,51.24
2023-04-21T01:05:22.423Z,51.23
2023-04-21T01:07:55.215Z,51.42
2023-04-21T01:10:27.392Z,51.34
2023-04-21T01:12:59.764Z,51.47
2023-04-21T01:15:32.207Z,51.27
2023-04-21T01:18:04.748Z,51.57
2023-04-21T01:20:39.172Z,51.92
2023-04-21T01:23:12.015Z,51.74
2023-04-21T01:25:44.567Z,51.83
2023-04-21T01:28:16.791Z,51.67
2023-04-21T01:30:49.310Z,52.14
2023-04-21T01:33:22.290Z,52.10
2023-04-21T01:35:55.738Z,52.36
2023-04-21T01:38:31.183Z,52.26
2023-04-21T01:41:04.652Z,52.51
2023-04-21T01:43:37.415Z,52.64
2023-04-21T01:46:10.149Z,52.62
2023-04-21T01:48:43.426Z,52.76
2023-04-21T01:51:16.178Z,53.02
2023-04-21T01:53:51.903Z,52.85
2023-04-21T01:56:24.327Z,53.16
2023-04-21T01:58:56.791Z,53.12
2023-04-21T02:01:29.907Z,53.42
2023-04-21T02:04:02.973Z,53.43
2023-04-21T02:06:36.056Z,53.36
2023-04-21T02:09:09.461Z,53.41
2023-04-21T02:11:42.118Z,53.44
2023-04-21T02:14:14.542Z,53.76
2023-04-21T02:16:47.140Z,53.46
2023-04-21T02:19:19.774Z,53.64
2023-04-21T02:21:53.061Z,53.84
2023-04-21T02:24:27.300Z,53.62
2023-04-21T02:26:59.966Z,53.77
2023-04-21T02:29:33.586Z,54.08
2023-04-21T02:34:43.534Z,54.14
2023-04-21T02:37:15.913Z,54.24
2023-04-21T02:39:48.235Z,54.34
2023-04-21T02:42:20.556Z,54.39
2023-04-21T02:44:53.944Z,54.61
2023-04-21T02:47:26.285Z,54.47
2023-04-21T02:49:58.688Z,55.20
2023-04-21T02:52:30.884Z,54.75
2023-04-21T02:55:03.680Z,54.70
2023-04-21T02:57:36.356Z,55.15
2023-04-21T03:00:11.996Z,55.14
2023-04-21T03:02:44.869Z,55.30
2023-04-21T03:05:17.839Z,55.31
2023-04-21T03:07:50.111Z,55.43
2023-04-21T03:10:22.286Z,55.31
2023-04-21T03:12:56.412Z,55.55
2023-04-21T03:15:29.947Z,55.03
2023-04-21T03:18:03.106Z,55.90
2023-04-21T03:20:36.196Z,55.58
2023-04-21T03:23:08.750Z,55.41
2023-04-21T03:25:41.412Z,55.71
2023-04-21T03:28:13.810Z,56.06
2023-04-21T03:30:46.078Z,56.03
2023-04-21T03:33:18.386Z,56.06
2023-04-21T03:35:50.460Z,55.99
2023-04-21T03:38:22.768Z,56.21
2023-04-21T03:40:55.002Z,56.12
2023-04-21T03:43:27.249Z,56.59
2023-04-21T03:46:04.029Z,56.53
2023-04-21T03:48:36.217Z,56.54
2023-04-21T03:51:08.691Z,57.07
2023-04-21T03:53:40.996Z,56.86
2023-04-21T03:56:13.291Z,57.17
2023-04-21T03:58:45.518Z,56.69
2023-04-21T04:01:20.301Z,56.96
2023-04-21T04:03:54.678Z,56.94
2023-04-21T04:06:28.610Z,57.19
2023-04-21T04:09:02.709Z,57.41
2023-04-21T04:11:35.933Z,57.60
2023-04-21T04:14:09.046Z,57.48
2023-04-21T04:16:43.017Z,57.52
2023-04-21T04:19:16.502Z,57.49
2023-04-21T04:21:49.377Z,57.72
2023-04-21T04:24:21.729Z,57.43
2023-04-21T04:26:55.095Z,57.04
2023-04-21T04:29:27.465Z,55.90
2023-04-21T04:32:01.951Z,56.00
2023-04-21T04:34:37.753Z,56.64
2023-04-21T04:37:11.398Z,56.62
2023-04-21T04:39:43.911Z,56.05
2023-04-21T04:42:17.552Z,55.40
2023-04-21T04:44:54.171Z,54.32
2023-04-21T04:47:27.514Z,54.39
2023-04-21T04:49:59.785Z,52.57
2023-04-21T04:52:33.562Z,51.57
2023-04-21T04:55:06.246Z,50.62
2023-04-21T04:57:38.401Z,49.67
2023-04-21T05:00:14.642Z,48.25
2023-04-21T05:02:47.154Z,48.11
2023-04-21T05:05:20.536Z,47.10
2023-04-21T05:07:52.722Z,46.89
2023-04-21T05:10:25.026Z,46.44
2023-04-21T05:12:57.063Z,46.57
2023-04-21T05:15:29.232Z,45.91
2023-04-21T05:18:04.008Z,45.04
2023-04-21T05:20:36.392Z,43.83
2023-04-21T05:23:08.793Z,42.78
2023-04-21T05:25:41.036Z,42.27
2023-04-21T05:28:13.256Z,40.86
2023-04-21T05:30:45.508Z,40.30
2023-04-21T05:33:19.169Z,39.93
2023-04-21T05:35:51.433Z,39.84
2023-04-21T05:38:23.645Z,39.60
2023-04-21T05:40:57.437Z,39.49
2023-04-21T05:43:29.714Z,38.64
2023-04-21T05:46:02.274Z,39.08
2023-04-21T05:48:37.530Z,39.74
2023-04-21T05:51:27.318Z,39.35
2023-04-21T05:53:59.482Z,39.39
2023-04-21T05:56:33.957Z,39.01
2023-04-21T05:59:07.138Z,38.56
2023-04-21T06:01:39.993Z,37.06
2023-04-21T06:04:12.660Z,36.94
2023-04-21T06:06:45.612Z,37.39
2023-04-21T06:09:17.807Z,37.95
2023-04-21T06:11:50.692Z,37.82
2023-04-21T06:14:22.907Z,38.31
2023-04-21T06:16:55.006Z,38.58
2023-04-21T06:19:27.183Z,38.50
2023-04-21T06:22:00.639Z,38.77
2023-04-21T06:24:36.073Z,39.13
2023-04-21T06:27:13.546Z,39.53
2023-04-21T06:29:46.035Z,39.93
2023-04-21T06:32:19.342Z,39.86
2023-04-21T06:34:51.601Z,39.32
2023-04-21T06:37:26.898Z,39.70
2023-04-21T06:39:59.152Z,39.14
2023-04-21T06:42:32.067Z,37.64
2023-04-21T06:45:04.277Z,37.01
2023-04-21T06:47:36.430Z,36.39
2023-04-21T06:50:10.370Z,35.18
2023-04-21T06:52:42.695Z,34.93
2023-04-21T06:55:15.447Z,35.02
2023-04-21T06:57:47.595Z,34.92
2023-04-21T07:00:20.463Z,34.43
2023-04-21T07:02:52.800Z,34.12
2023-04-21T07:05:25.276Z,33.89
2023-04-21T07:08:00.061Z,33.73
2023-04-21T07:10:34.845Z,33.31
2023-04-21T07:13:08.794Z,32.73
2023-04-21T07:15:42.344Z,32.53
2023-04-21T07:18:14.802Z,31.62
2023-04-21T07:20:47.583Z,31.70
2023-04-21T07:23:19.944Z,31.03
2023-04-21T07:25:52.251Z,31.42
2023-04-21T07:28:24.568Z,32.40
2023-04-21T07:30:57.040Z,32.00
2023-04-21T07:33:29.270Z,31.93
2023-04-21T07:36:03.490Z,32.45
2023-04-21T07:38:38.619Z,32.72
2023-04-21T07:41:10.810Z,33.20
2023-04-21T07:43:43.531Z,33.95
2023-04-21T07:46:16.071Z,33.82
2023-04-21T07:48:50.712Z,33.67
2023-04-21T07:51:23.156Z,33.62
2023-04-21T07:53:56.098Z,32.40
2023-04-21T07:56:28.771Z,31.98
2023-04-21T07:59:03.910Z,32.67
2023-04-21T08:01:40.961Z,31.41
2023-04-21T08:04:13.575Z,31.53
2023-04-21T08:06:46.136Z,31.68
2023-04-21T08:09:19.117Z,31.27
2023-04-21T08:11:51.991Z,31.31
2023-04-21T08:14:24.342Z,31.54
2023-04-21T08:16:57.382Z,32.24
2023-04-21T08:19:33.120Z,32.18
2023-04-21T08:22:11.084Z,32.16
2023-04-21T08:24:43.314Z,32.34
2023-04-21T08:27:17.680Z,32.54
2023-04-21T08:29:50.812Z,33.01
2023-04-21T08:32:24.657Z,32.90
2023-04-21T08:34:57.612Z,33.17
2023-04-21T08:37:30.542Z,33.14
2023-04-21T08:40:02.915Z,32.53
2023-04-21T08:42:37.257Z,32.20
2023-04-21T08:45:11.622Z,32.94
2023-04-21T08:47:44.971Z,32.95
2023-04-21T08:50:17.156Z,32.85
2023-04-21T08:52:49.291Z,32.99
2023-04-21T08:55:22.314Z,32.38
2023-04-21T08:57:54.586Z,32.54
2023-04-21T09:00:28.260Z,32.32
2023-04-21T09:03:04.234Z,32.12
2023-04-21T09:05:42.826Z,32.20
2023-04-21T09:08:17.441Z,32.07
2023-04-21T09:10:53.982Z,32.49
2023-04-21T09:13:34.161Z,32.06
2023-04-21T09:16:16.477Z,31.38
2023-04-21T09:18:49.511Z,30.57
2023-04-21T09:21:23.403Z,30.66
2023-04-21T09:23:56.984Z,30.61
2023-04-21T09:26:27.923Z,30.89
2023-04-21T09:29:00.924Z,30.82
2023-04-21T09:31:38.363Z,30.69
2023-04-21T09:34:21.668Z,30.50
2023-04-21T09:37:02.548Z,30.42
2023-04-21T09:39:49.312Z,30.62
2023-04-21T09:42:32.591Z,29.64
2023-04-21T09:47:43.473Z,30.14
2023-04-21T09:50:17.010Z,30.00
2023-04-21T09:52:54.010Z,29.80
2023-04-21T09:55:33.660Z,29.30
2023-04-21T09:58:07.402Z,29.75
2023-04-21T10:00:42.656Z,29.99
2023-04-21T10:03:16.002Z,29.95
2023-04-21T10:05:48.845Z,29.69
2023-04-21T10:08:24.613Z,29.43
2023-04-21T10:10:59.781Z,29.86
2023-04-21T10:13:33.450Z,29.95
2023-04-21T10:16:10.723Z,29.53
2023-04-21T10:18:46.435Z,29.33
2023-04-21T10:21:24.364Z,29.13
2023-04-21T10:23:59.373Z,28.81
2023-04-21T10:26:37.584Z,29.32
2023-04-21T10:29:10.774Z,29.37
2023-04-21T10:31:54.415Z,29.21
2023-04-21T10:34:37.937Z,28.95
2023-04-21T10:37:34.628Z,28.65
2023-04-21T10:40:11.137Z,29.06
2023-04-21T10:42:44.201Z,28.85
2023-04-21T10:45:16.795Z,28.49
2023-04-21T10:47:51.681Z,28.40
2023-04-21T10:50:27.119Z,28.96
2023-04-21T10:53:12.069Z,28.66
2023-04-21T10:55:53.098Z,28.57
2023-04-21T10:58:27.118Z,28.53
2023-04-21T11:01:01.144Z,28.00
2023-04-21T11:03:41.383Z,28.83
2023-04-21T11:06:20.630Z,28.93
2023-04-21T11:08:59.757Z,27.86
2023-04-21T11:11:34.150Z,28.27
2023-04-21T11:14:07.782Z,28.17
2023-04-21T11:16:45.295Z,28.45
2023-04-21T11:19:20.963Z,28.15
2023-04-21T11:21:54.551Z,28.32
2023-04-21T11:24:25.668Z,28.47
2023-04-21T11:26:58.584Z,28.35
2023-04-21T11:29:34.849Z,28.94
2023-04-21T11:32:09.543Z,28.99
2023-04-21T11:34:42.344Z,28.65
2023-04-21T11:37:18.727Z,28.44
2023-04-21T11:40:00.399Z,28.17
2023-04-21T11:42:33.488Z,27.95
2023-04-21T11:45:06.491Z,27.88
2023-04-21T11:47:40.255Z,27.89
2023-04-21T11:50:13.137Z,28.24
2023-04-21T11:52:45.994Z,28.25
2023-04-21T11:55:20.267Z,27.85
2023-04-21T11:57:53.108Z,27.82
2023-04-21T12:00:26.118Z,28.14
2023-04-21T12:02:58.886Z,27.48
2023-04-21T12:05:38.219Z,27.25
2023-04-21T12:08:16.819Z,27.71
2023-04-21T12:10:50.407Z,28.06
2023-04-21T12:13:26.372Z,27.68
2023-04-21T12:18:36.635Z,28.12
2023-04-21T12:21:09.520Z,27.70
2023-04-21T12:23:42.150Z,27.82
2023-04-21T12:26:15.311Z,27.63
2023-04-21T12:28:47.947Z,27.75
2023-04-21T12:31:22.211Z,28.23
2023-04-21T12:33:54.881Z,27.84
2023-04-21T12:36:27.951Z,27.47
2023-04-21T12:39:00.152Z,27.80
2023-04-21T12:41:33.032Z,27.29
2023-04-21T12:44:06.082Z,27.43
2023-04-21T12:46:40.085Z,27.53
2023-04-21T12:49:12.732Z,27.71
2023-04-21T12:51:45.582Z,27.36
2023-04-21T12:54:18.019Z,27.77
2023-04-21T12:56:50.631Z,27.87
2023-04-21T12:59:23.176Z,27.76
2023-04-21T13:01:55.784Z,27.78
2023-04-21T13:04:28.530Z,27.19
2023-04-21T13:07:01.012Z,27.39
2023-04-21T13:09:35.951Z,27.64
2023-04-21T13:12:08.631Z,27.37
2023-04-21T13:14:40.992Z,27.90
2023-04-21T13:17:13.606Z,27.64
2023-04-21T13:19:46.424Z,27.47
2023-04-21T13:22:18.973Z,27.56
2023-04-21T13:24:51.916Z,27.56
2023-04-21T13:27:24.409Z,27.64
2023-04-21T13:29:56.909Z,27.59
2023-04-21T13:32:29.402Z,27.53
2023-04-21T13:35:01.889Z,27.50
2023-04-21T13:37:34.827Z,27.84
2023-04-21T13:40:10.417Z,27.96
2023-04-21T13:42:42.808Z,27.66
2023-04-21T13:45:16.273Z,27.47
2023-04-21T13:47:48.624Z,27.44
2023-04-21T13:50:21.427Z,28.05
2023-04-21T13:52:54.366Z,28.11
2023-04-21T13:55:27.581Z,28.18
2023-04-21T13:58:01.934Z,27.97
2023-04-21T14:00:34.410Z,28.04
2023-04-21T14:03:06.934Z,27.70
2023-04-21T14:05:40.280Z,28.01
2023-04-21T14:08:12.815Z,28.13
2023-04-21T14:10:45.416Z,28.27
2023-04-21T14:15:56.001Z,28.28
2023-04-21T14:18:28.490Z,28.22
2023-04-21T14:21:00.991Z,28.38
2023-04-21T14:23:36.002Z,28.26
2023-04-21T14:26:08.822Z,28.54
2023-04-21T14:28:41.202Z,28.22
2023-04-21T14:31:13.590Z,28.12
2023-04-21T14:33:49.195Z,28.04
2023-04-21T14:36:21.837Z,28.62
2023-04-21T14:38:55.263Z,27.97
2023-04-21T14:41:27.578Z,28.07
2023-04-21T14:44:00.848Z,28.28
2023-04-21T14:46:34.630Z,28.25
2023-04-21T14:49:06.131Z,28.18
2023-04-21T14:51:41.409Z,28.19
2023-04-21T14:54:16.020Z,28.39
2023-04-21T14:56:48.523Z,28.35
2023-04-21T14:59:20.798Z,28.35
2023-04-21T15:01:53.358Z,28.58
2023-04-21T15:04:26.527Z,28.43
2023-04-21T15:06:59.223Z,28.53
2023-04-21T15:09:32.478Z,28.31
2023-04-21T15:12:05.015Z,28.69
2023-04-21T15:14:38.403Z,28.66
2023-04-21T15:17:11.037Z,28.69
2023-04-21T15:19:43.795Z,28.53
2023-04-21T15:22:16.353Z,28.64
2023-04-21T15:24:48.843Z,28.71
2023-04-21T15:27:21.974Z,28.78
2023-04-21T15:29:54.664Z,28.87
2023-04-21T15:32:27.082Z,29.08
2023-04-21T15:35:01.289Z,29.17
2023-04-21T15:37:38.134Z,29.17
2023-04-21T15:40:12.966Z,29.07
2023-04-21T15:42:45.640Z,29.31
2023-04-21T15:45:18.667Z,29.34
2023-04-21T15:47:51.081Z,29.52
2023-04-21T15:50:23.635Z,29.68
2023-04-21T15:52:55.993Z,29.97
2023-04-21T15:55:29.498Z,29.76
2023-04-21T15:58:01.906Z,29.87
2023-04-21T16:00:34.852Z,30.25
2023-04-21T16:03:07.961Z,30.18
2023-04-21T16:05:40.659Z,30.03
2023-04-21T16:08:13.312Z,30.27
2023-04-21T16:10:46.185Z,30.52
2023-04-21T16:13:19.090Z,30.49
2023-04-21T16:15:51.452Z,30.64
2023-04-21T16:18:24.129Z,30.58
2023-04-21T16:20:56.862Z,30.53
2023-04-21T16:23:29.203Z,30.88
2023-04-21T16:26:02.199Z,30.69
2023-04-21T16:28:37.156Z,30.94
2023-04-21T16:31:10.024Z,30.95
2023-04-21T16:33:44.612Z,31.17
2023-04-21T16:36:21.684Z,31.48
2023-04-21T16:38:55.294Z,31.25
2023-04-21T16:41:27.884Z,31.57
2023-04-21T16:44:00.361Z,31.39
2023-04-21T16:46:32.963Z,31.80
2023-04-21T16:49:09.237Z,31.43
2023-04-21T16:51:45.448Z,31.42
2023-04-21T16:54:17.983Z,31.54
2023-04-21T16:56:51.285Z,31.78
2023-04-21T16:59:24.856Z,31.78
2023-04-21T17:04:46.745Z,31.64
2023-04-21T17:07:22.399Z,31.97
2023-04-21T17:09:55.012Z,32.53
2023-04-21T17:12:28.251Z,32.57
2023-04-21T17:15:01.053Z,32.30
2023-04-21T17:17:42.606Z,32.81
2023-04-21T17:20:17.093Z,32.70
2023-04-21T17:22:52.899Z,32.16
2023-04-21T17:25:26.398Z,32.54
2023-04-21T17:27:59.202Z,32.41
2023-04-21T17:30:31.834Z,33.08
2023-04-21T17:33:16.269Z,32.31
2023-04-21T17:36:02.321Z,33.30
2023-04-21T17:38:38.685Z,32.50
2023-04-21T17:41:11.998Z,33.41
2023-04-21T17:43:44.647Z,32.55
2023-04-21T17:46:18.101Z,33.23
2023-04-21T17:48:53.825Z,33.47
2023-04-21T17:51:29.864Z,33.26
2023-04-21T17:54:03.576Z,33.34
2023-04-21T17:56:39.044Z,33.40
2023-04-21T17:59:11.926Z,33.53
2023-04-21T18:01:44.965Z,34.41
2023-04-21T18:04:18.374Z,33.81
2023-04-21T18:06:52.068Z,34.57
2023-04-21T18:09:26.751Z,34.57
2023-04-21T18:12:00.454Z,34.51
2023-04-21T18:14:31.947Z,34.13
2023-04-21T18:17:06.204Z,34.34
2023-04-21T18:19:39.081Z,35.07
2023-04-21T18:22:12.330Z,35.22
2023-04-21T18:24:47.329Z,35.55
2023-04-21T18:27:20.033Z,35.39
2023-04-21T18:29:52.563Z,36.29
2023-04-21T18:32:25.588Z,35.57
2023-04-21T18:34:58.400Z,36.62
2023-04-21T18:37:31.291Z,36.25
2023-04-21T18:40:06.130Z,36.67
2023-04-21T18:42:37.504Z,36.98
2023-04-21T18:45:13.235Z,37.31
2023-04-21T18:47:47.176Z,37.42
2023-04-21T18:50:20.302Z,37.10
2023-04-21T18:52:58.480Z,37.54
2023-04-21T18:55:31.195Z,38.05
2023-04-21T18:58:04.470Z,37.82
2023-04-21T19:00:39.921Z,38.11
2023-04-21T19:03:13.289Z,38.26
2023-04-21T19:05:46.045Z,38.75
2023-04-21T19:08:27.062Z,39.41
2023-04-21T19:11:06.905Z,39.38
2023-04-21T19:13:40.216Z,39.82
2023-04-21T19:16:15.000Z,39.94
2023-04-21T19:18:50.341Z,40.08
2023-04-21T19:21:25.255Z,39.93
2023-04-21T19:23:58.257Z,40.64
2023-04-21T19:26:31.029Z,40.56
2023-04-21T19:29:03.917Z,40.84
2023-04-21T19:31:37.368Z,40.71
2023-04-21T19:34:10.246Z,41.33
2023-04-21T19:36:44.022Z,41.41
2023-04-21T19:39:17.757Z,41.15
2023-04-21T19:41:50.309Z,41.44
2023-04-21T19:44:22.738Z,41.85
2023-04-21T19:46:57.941Z,41.95
2023-04-21T19:49:33.482Z,42.13
2023-04-21T19:52:06.557Z,42.15
2023-04-21T19:54:39.196Z,41.96
2023-04-21T19:57:12.222Z,42.50
2023-04-21T19:59:45.058Z,42.34
2023-04-21T20:02:17.583Z,42.63
2023-04-21T20:04:50.869Z,43.14
2023-04-21T20:07:24.308Z,42.74
2023-04-21T20:09:57.178Z,42.85
2023-04-21T20:12:30.586Z,43.44
2023-04-21T20:15:04.674Z,43.45
2023-04-21T20:17:37.577Z,43.84
2023-04-21T20:20:12.055Z,44.04
2023-04-21T20:22:44.662Z,44.21
2023-04-21T20:25:17.670Z,44.15
2023-04-21T20:27:50.021Z,44.13
2023-04-21T20:30:22.779Z,44.12
2023-04-21T20:32:55.632Z,44.46
2023-04-21T20:35:30.713Z,44.67
2023-04-21T20:38:04.155Z,44.92
2023-04-21T20:40:39.510Z,44.71
2023-04-21T20:43:12.747Z,45.10
2023-04-21T20:45:45.264Z,45.30
2023-04-21T20:48:18.937Z,45.24
2023-04-21T20:50:51.521Z,45.70
2023-04-21T20:53:24.702Z,45.75
2023-04-21T20:55:58.972Z,45.85
2023-04-21T20:58:29.745Z,45.99
2023-04-21T21:01:02.090Z,46.11
2023-04-21T21:03:37.339Z,46.25
2023-04-21T21:06:10.386Z,46.42
2023-04-21T21:08:44.106Z,46.98
2023-04-21T21:11:16.638Z,46.99
2023-04-21T21:13:51.364Z,46.95
2023-04-21T21:16:24.003Z,47.17
2023-04-21T21:18:56.729Z,47.17
2023-04-21T21:21:31.953Z,47.49
2023-04-21T21:24:05.158Z,47.59
2023-04-21T21:26:37.805Z,47.68
2023-04-21T21:29:11.537Z,47.75
2023-04-21T21:31:44.141Z,47.92
2023-04-21T21:34:16.601Z,47.95
2023-04-21T21:36:48.953Z,48.25
2023-04-21T21:39:21.692Z,47.84
2023-04-21T21:41:54.022Z,48.45
2023-04-21T21:44:26.600Z,48.83
2023-04-21T21:46:58.978Z,48.71
2023-04-21T21:49:31.422Z,48.87
2023-04-21T21:52:04.264Z,48.81
2023-04-21T21:54:37.246Z,49.03
2023-04-21T21:57:09.847Z,48.96
2023-04-21T21:59:43.293Z,49.29
2023-04-21T22:02:15.795Z,49.24
2023-04-21T22:04:48.420Z,49.48
2023-04-21T22:07:20.743Z,49.61
2023-04-21T22:09:53.404Z,49.65
2023-04-21T22:12:26.089Z,49.75
2023-04-21T22:14:58.318Z,49.94
2023-04-21T22:17:31.627Z,50.25
2023-04-21T22:20:08.789Z,50.01
2023-04-21T22:22:41.233Z,50.20
2023-04-21T22:25:13.849Z,50.40
2023-04-21T22:27:46.144Z,50.73
2023-04-21T22:30:18.765Z,50.47
2023-04-21T22:32:51.350Z,50.67
2023-04-21T22:35:23.720Z,50.94
2023-04-21T22:37:56.637Z,50.93
2023-04-21T22:40:31.954Z,50.75
2023-04-21T22:43:06.032Z,51.46
2023-04-21T22:45:38.719Z,51.36
2023-04-21T22:48:11.095Z,51.66
2023-04-21T22:50:45.113Z,51.29
2023-04-21T22:53:17.443Z,51.40
2023-04-21T22:55:49.829Z,51.66
2023-04-21T22:58:22.822Z,51.67
2023-04-21T23:00:55.338Z,51.86
2023-04-21T23:03:30.567Z,52.00
2023-04-21T23:06:03.037Z,52.18
2023-04-21T23:08:36.924Z,52.31
2023-04-21T23:11:09.192Z,52.10
2023-04-21T23:13:42.249Z,52.77
2023-04-21T23:16:14.900Z,53.06
2023-04-21T23:18:47.545Z,53.08
2023-04-21T23:21:20.139Z,53.00
2023-04-21T23:23:55.259Z,53.23
2023-04-21T23:26:27.603Z,53.21
2023-04-21T23:29:00.406Z,53.56
2023-04-21T23:31:32.831Z,53.29
2023-04-21T23:34:05.592Z,53.23
2023-04-21T23:36:38.392Z,53.51
2023-04-21T23:39:11.442Z,53.50
2023-04-21T23:41:44.377Z,53.67
2023-04-21T23:44:16.919Z,53.86
2023-04-21T23:46:49.410Z,53.75
2023-04-21T23:49:22.123Z,53.95
2023-04-21T23:51:54.850Z,54.18
2023-04-21T23:54:27.631Z,54.43
2023-04-21T23:57:07.395Z,53.82
2023-04-21T23:59:39.905Z,54.38
